LFRGLFRK

Guest
Details From LFRG - Deauville Saint Gatien
To LFRK - Caen Carpiquet
Flight Number -
Tags generated
Created
Modified
Stats Distance 27 nm / 49 km
Max Altitude 0 ft / 0 m
Waypoints 3
Social Downloads 1
Likes 0
Share VATSIM

Download

Looking for another format? Having issues loading an existing format? Contact us
Advertisement - Login to hide

Notes

Basic altitude profile: - Ascent Rate: 2500ft/min - Ascent Speed: 250kts - Cruise Altitude: 35000ft - Cruise Speed: 420kts - Descent Rate: 1500ft/min - Descent Speed: 250kts

Route

LFRG CAN LFRK

ID Type Via Altitude Latitude Longitude Leg Dist Tot Dist Heading (true) Name
O LFRG APT - 0 ft / 0 m 49.36530˚ 0.15432˚ - 0 nm - Deauville Saint Gatien
CAN VOR - 0 ft / 0 m 49.17319˚ -0.45528˚ 26 nm 26 nm 244° / 244° CAEN CARPIQUET VOR
O LFRK APT - 0 ft / 0 m 49.17512˚ -0.45194˚ 0 nm 26 nm 49° / 49° Caen Carpiquet

Altitude Profile

Advertisement - Login to hide

LFRG

Details ICAO LFRG (DOL)
Name Deauville Saint Gatien
Region France
Timezone Europe/Paris (UTC+1.0)
Stats Elevation 479 ft / 146 m (AMSL)
Location 49.365296° 0.154324°
Runways 1
Magnetic Variation 0.143° W

METAR

LFRG 121430Z AUTO 23006KT 9999 FEW022 06/02 Q1012 NOSIG

Decode

TAF

Not found

Departure Runways

ID Width Length Bearing (true) Bearing (mag) Surface Threshold Offset Overrun Length
12 148 ft / 45 m 8,344 ft / 2,543 m 117.22° 117.36° Asphalt 1,476 ft / 450 m 0 ft / 0 m
30 148 ft / 45 m 8,344 ft / 2,543 m 297.25° 297.39° Asphalt 1,378 ft / 420 m 0 ft / 0 m

LFRK

Details ICAO LFRK (CFR)
Name Caen Carpiquet
Region France
Timezone Europe/Paris (UTC+1.0)
Stats Elevation 256 ft / 78 m (AMSL)
Location 49.175122° -0.451941°
Runways 2
Magnetic Variation 0.322° W

METAR

LFRK 121430Z AUTO 23011KT CAVOK 07/03 Q1012 NOSIG

Decode

TAF

Not found

Destination Runways

ID Width Length Bearing (true) Bearing (mag) Surface Threshold Offset Overrun Length
06 98 ft / 30 m 3,880 ft / 1,183 m 51.68° 52.00° Asphalt 0 ft / 0 m 0 ft / 0 m
13 148 ft / 45 m 6,215 ft / 1,894 m 125.34° 125.66° Asphalt 984 ft / 300 m 0 ft / 0 m
24 98 ft / 30 m 3,880 ft / 1,183 m 231.69° 232.01° Asphalt 0 ft / 0 m 0 ft / 0 m
31 148 ft / 45 m 6,215 ft / 1,894 m 305.36° 305.68° Asphalt 0 ft / 0 m 0 ft / 0 m

Approach Navaids

Runway Type Ident Frequency Range Bearing (true) Bearing (mag) Slope Elevation
31 Localiser CN 110.95 MHz 18 nm / 33 km 305.34° 305.66° - 231 ft / 70 m (AMSL)
31 Glidescope CN 110.95 MHz 10 nm / 19 km 305.35° 305.67° 3.00° 233 ft / 71 m (AMSL)
31 DME CN 110.95 MHz 18 nm / 33 km - - - 233 ft / 71 m (AMSL)

Popular Alternatives